Time;durP1;ratioP1;P1;durP2;ratioP2;P2;SDS_P1;SDS_P2;PMS_P1;PMS_P2;Temp;Humidity;BMP_temperature;BMP_pressure;BME280_temperature;BME280_humidity;BME280_pressure;Samples;Min_cycle;Max_cycle;Signal;HPM_P1;HPM_P2
2021/12/17 00:05:00;;;;;;;;;;;0.80;99.90;;;;;;5072396;28;19962;-79
2021/12/17 00:07:27;;;;;;;;;;;0.80;99.90;;;;;;5071066;28;20002;-82
2021/12/17 00:09:54;;;;;;;;;;;0.90;99.90;;;;;;5092455;28;19930;-80
2021/12/17 00:12:21;;;;;;;;;;;1.00;99.90;;;;;;5069499;28;20271;-79
2021/12/17 00:14:48;;;;;;;;;;;1.00;99.90;;;;;;5066388;28;19958;-81
2021/12/17 00:17:19;;;;;;;;;;;0.90;99.90;;;;;;5084566;28;19954;-78
2021/12/17 00:49:24;;;;;;;;;;;1.40;99.90;;;;;;5084296;28;19912;-81
2021/12/17 00:51:58;;;;;;;;;;;1.30;99.90;;;;;;5064636;28;20374;-81
2021/12/17 00:54:33;;;;;;;;;;;1.40;99.90;;;;;;5087829;28;19942;-79
2021/12/17 00:57:00;;;;;;;;;;;1.40;99.90;;;;;;5088176;28;19915;-78
2021/12/17 00:59:26;;;;;;;;;;;1.30;99.90;;;;;;5084432;28;19912;-77
2021/12/17 01:01:53;;;;;;;;;;;1.20;99.90;;;;;;5085904;28;19956;-78
2021/12/17 01:04:19;;;;;;;;;;;1.20;99.90;;;;;;5050777;28;20303;-80
2021/12/17 01:06:45;;;;;;;;;;;1.20;99.90;;;;;;5087462;28;19919;-79
2021/12/17 01:09:14;;;;;;;;;;;1.20;99.90;;;;;;5065609;28;19923;-78
2021/12/17 01:11:40;;;;;;;;;;;1.40;99.90;;;;;;5086919;28;19920;-78
2021/12/17 01:14:05;;;;;;;;;;;1.50;99.90;;;;;;5064486;28;19915;-79
2021/12/17 01:16:31;;;;;;;;;;;1.50;99.90;;;;;;5083440;28;20402;-80
2021/12/17 01:19:25;;;;;;;;;;;1.50;99.90;;;;;;5085766;28;19919;-78
2021/12/17 01:24:58;;;;;;;;;;;1.60;99.90;;;;;;5083748;28;20378;-80
2021/12/17 01:35:29;;;;;;;;;;;1.50;99.90;;;;;;5086946;28;19919;-77
2021/12/17 01:43:16;;;;;;;;;;;1.70;99.90;;;;;;5083724;28;19908;-80
2021/12/17 01:45:42;;;;;;;;;;;1.70;99.90;;;;;;5086368;28;19912;-78
2021/12/17 01:48:12;;;;;;;;;;;1.60;99.90;;;;;;5083233;28;19908;-79
2021/12/17 02:01:36;;;;;;;;;;;1.60;99.90;;;;;;5083280;28;19919;-77
2021/12/17 02:04:05;;;;;;;;;;;1.60;99.90;;;;;;5068576;28;19912;-77
2021/12/17 02:06:34;;;;;;;;;;;1.60;99.90;;;;;;5065012;28;19931;-77
2021/12/17 02:09:01;;;;;;;;;;;1.60;99.90;;;;;;5066283;28;19969;-78
2021/12/17 02:20:23;;;;;;;;;;;1.40;99.90;;;;;;5088398;28;19919;-81
2021/12/17 02:28:48;;;;;;;;;;;1.60;99.90;;;;;;5051992;28;19923;-79
2021/12/17 02:31:28;;;;;;;;;;;1.50;99.90;;;;;;5054537;28;19927;-81
2021/12/17 02:33:55;;;;;;;;;;;1.40;99.90;;;;;;5068765;28;19947;-82
2021/12/17 02:36:24;;;;;;;;;;;1.40;99.90;;;;;;5085503;28;19959;-80
2021/12/17 02:38:53;;;;;;;;;;;1.60;99.90;;;;;;5081884;28;19958;-82
2021/12/17 02:46:47;;;;;;;;;;;1.60;99.90;;;;;;5081424;28;20290;-80
2021/12/17 02:49:14;;;;;;;;;;;1.60;99.90;;;;;;5081957;28;19916;-81
2021/12/17 02:51:40;;;;;;;;;;;1.50;99.90;;;;;;5083728;28;19923;-80
2021/12/17 02:54:06;;;;;;;;;;;1.60;99.90;;;;;;5064526;28;19915;-80
2021/12/17 02:56:32;;;;;;;;;;;1.60;99.90;;;;;;5063835;28;20371;-81
2021/12/17 02:58:58;;;;;;;;;;;1.70;99.90;;;;;;5078596;28;20373;-80
2021/12/17 03:01:24;;;;;;;;;;;1.70;99.90;;;;;;5066140;28;19912;-80
2021/12/17 03:03:51;;;;;;;;;;;1.70;99.90;;;;;;5084584;28;19911;-79
2021/12/17 03:06:17;;;;;;;;;;;1.60;99.90;;;;;;5080747;28;20448;-82
2021/12/17 03:08:46;;;;;;;;;;;1.60;99.90;;;;;;5063209;28;19988;-77
2021/12/17 03:11:12;;;;;;;;;;;1.60;99.90;;;;;;5084016;28;19916;-77
2021/12/17 03:13:38;;;;;;;;;;;1.70;99.90;;;;;;5082175;28;20413;-78
2021/12/17 03:23:26;;;;;;;;;;;1.70;99.90;;;;;;5081252;28;19915;-75
2021/12/17 03:24:22;;;;;;;;;;;1.80;99.90;;;;;;5081338;28;19920;-80
2021/12/17 03:26:48;;;;;;;;;;;1.80;99.90;;;;;;5065448;28;19908;-79
2021/12/17 03:29:14;;;;;;;;;;;1.60;99.90;;;;;;5074452;28;20355;-80
2021/12/17 03:31:40;;;;;;;;;;;1.50;99.90;;;;;;5080206;28;19916;-79
2021/12/17 03:34:20;;;;;;;;;;;1.50;99.90;;;;;;5082503;28;19920;-80
2021/12/17 03:36:54;;;;;;;;;;;1.50;99.90;;;;;;5083321;28;19916;-80
2021/12/17 03:39:21;;;;;;;;;;;1.60;99.90;;;;;;5080746;28;19986;-82
2021/12/17 03:41:51;;;;;;;;;;;1.70;99.90;;;;;;5080434;28;20371;-81
2021/12/17 03:44:17;;;;;;;;;;;1.70;99.90;;;;;;5084967;28;19913;-78
2021/12/17 03:46:45;;;;;;;;;;;1.70;99.90;;;;;;5084066;28;19912;-77
2021/12/17 03:49:11;;;;;;;;;;;1.70;99.90;;;;;;5083402;28;19940;-81
2021/12/17 03:51:47;;;;;;;;;;;1.70;99.90;;;;;;5082097;28;19955;-81
2021/12/17 03:54:13;;;;;;;;;;;1.70;99.90;;;;;;5081308;28;19927;-79
2021/12/17 03:56:38;;;;;;;;;;;1.60;99.90;;;;;;5084073;28;19915;-79
2021/12/17 03:59:10;;;;;;;;;;;1.60;99.90;;;;;;5063939;28;20003;-79
2021/12/17 04:01:36;;;;;;;;;;;1.70;99.90;;;;;;5065967;28;20343;-78
2021/12/17 04:04:01;;;;;;;;;;;1.60;99.90;;;;;;5063846;28;20015;-80
2021/12/17 04:06:27;;;;;;;;;;;1.70;99.90;;;;;;5081047;28;19907;-81
2021/12/17 04:08:54;;;;;;;;;;;1.70;99.90;;;;;;5080659;28;19913;-81
2021/12/17 04:11:20;;;;;;;;;;;1.80;99.90;;;;;;5065477;28;19970;-78
2021/12/17 04:13:53;;;;;;;;;;;1.70;99.90;;;;;;5080639;28;20405;-79
2021/12/17 04:16:23;;;;;;;;;;;1.70;99.90;;;;;;5085050;28;19913;-80
2021/12/17 04:18:48;;;;;;;;;;;1.60;99.90;;;;;;5067316;28;19936;-78
2021/12/17 04:21:15;;;;;;;;;;;1.70;99.90;;;;;;5085068;28;20366;-83
2021/12/17 04:23:41;;;;;;;;;;;1.80;99.90;;;;;;5063434;28;19958;-79
2021/12/17 04:26:07;;;;;;;;;;;1.80;99.90;;;;;;5081972;28;20270;-81
2021/12/17 04:28:35;;;;;;;;;;;1.90;99.90;;;;;;5082303;28;19908;-79
2021/12/17 04:31:01;;;;;;;;;;;1.90;99.90;;;;;;5080907;28;19916;-80
2021/12/17 04:33:26;;;;;;;;;;;1.90;99.90;;;;;;5061889;28;19912;-80
2021/12/17 04:35:52;;;;;;;;;;;1.80;99.90;;;;;;5079734;28;19966;-79
2021/12/17 04:38:18;;;;;;;;;;;1.70;99.90;;;;;;5083705;28;19907;-78
2021/12/17 04:40:44;;;;;;;;;;;1.70;99.90;;;;;;5062543;28;19993;-79
2021/12/17 04:45:44;;;;;;;;;;;1.80;99.90;;;;;;5069031;28;19912;-77
2021/12/17 04:59:08;;;;;;;;;;;1.90;99.90;;;;;;5085928;28;19931;-77
2021/12/17 05:01:34;;;;;;;;;;;1.80;99.90;;;;;;5066737;28;19916;-78
2021/12/17 05:04:00;;;;;;;;;;;1.90;99.90;;;;;;5069491;28;20325;-80
2021/12/17 05:06:29;;;;;;;;;;;2.00;99.90;;;;;;5087030;28;19908;-79
2021/12/17 05:08:59;;;;;;;;;;;2.00;99.90;;;;;;5087057;28;19916;-77
2021/12/17 05:18:13;;;;;;;;;;;2.10;99.90;;;;;;5087336;28;20258;-80
2021/12/17 05:22:10;;;;;;;;;;;2.00;99.90;;;;;;5083693;28;19913;-77
2021/12/17 05:24:36;;;;;;;;;;;2.00;99.90;;;;;;5070501;28;20290;-78
2021/12/17 05:27:01;;;;;;;;;;;2.10;99.90;;;;;;5050873;28;20007;-81
2021/12/17 05:29:27;;;;;;;;;;;2.10;99.90;;;;;;5067783;28;20000;-76
2021/12/17 05:31:52;;;;;;;;;;;2.10;99.90;;;;;;5086361;28;19926;-76
2021/12/17 05:34:18;;;;;;;;;;;2.30;99.90;;;;;;5084819;28;19908;-78
2021/12/17 05:36:43;;;;;;;;;;;2.20;99.90;;;;;;5079502;28;20390;-76
2021/12/17 05:39:09;;;;;;;;;;;2.30;99.90;;;;;;5066131;28;20282;-77
2021/12/17 05:41:34;;;;;;;;;;;2.30;99.90;;;;;;5082683;28;19908;-78
2021/12/17 05:44:00;;;;;;;;;;;2.30;99.90;;;;;;5068213;28;20338;-76
2021/12/17 05:49:10;;;;;;;;;;;2.10;99.90;;;;;;5091003;28;19935;-79
2021/12/17 05:51:36;;;;;;;;;;;2.20;99.90;;;;;;5093189;28;19916;-83
2021/12/17 05:54:02;;;;;;;;;;;2.30;99.90;;;;;;5089513;28;19922;-81
2021/12/17 05:56:27;;;;;;;;;;;2.20;99.90;;;;;;5088762;28;20286;-83
2021/12/17 05:58:53;;;;;;;;;;;2.40;99.90;;;;;;5091582;28;20011;-80
2021/12/17 06:01:18;;;;;;;;;;;2.50;99.90;;;;;;5087561;28;19916;-78
2021/12/17 06:03:44;;;;;;;;;;;2.40;99.90;;;;;;5087073;28;19951;-78
2021/12/17 06:06:09;;;;;;;;;;;2.30;99.90;;;;;;5076192;28;19961;-80
2021/12/17 06:08:35;;;;;;;;;;;2.30;99.90;;;;;;5066262;28;19912;-78
2021/12/17 06:11:00;;;;;;;;;;;2.30;99.90;;;;;;5069158;28;19912;-79
2021/12/17 06:13:26;;;;;;;;;;;2.20;99.90;;;;;;5085469;28;20019;-79
2021/12/17 06:15:51;;;;;;;;;;;2.20;99.90;;;;;;5068627;28;19912;-79
2021/12/17 06:18:17;;;;;;;;;;;2.10;99.90;;;;;;5084233;28;19912;-82
2021/12/17 06:20:43;;;;;;;;;;;2.30;99.90;;;;;;5086694;28;20345;-80
2021/12/17 06:23:08;;;;;;;;;;;2.30;99.90;;;;;;5087877;28;20372;-88
2021/12/17 06:25:34;;;;;;;;;;;2.30;99.90;;;;;;5062117;28;19919;-83
2021/12/17 06:27:59;;;;;;;;;;;2.30;99.90;;;;;;5083992;28;19912;-84
2021/12/17 06:30:25;;;;;;;;;;;2.30;99.90;;;;;;5069930;28;19919;-84
2021/12/17 06:32:51;;;;;;;;;;;2.30;99.90;;;;;;5061648;28;19920;-85
2021/12/17 06:35:16;;;;;;;;;;;2.30;99.90;;;;;;5084023;28;19962;-84
2021/12/17 06:37:43;;;;;;;;;;;2.30;99.90;;;;;;5083763;28;19912;-85
2021/12/17 06:40:09;;;;;;;;;;;2.30;99.90;;;;;;5086344;28;19994;-85
2021/12/17 06:42:35;;;;;;;;;;;2.30;99.90;;;;;;5067661;28;20015;-86
2021/12/17 06:45:05;;;;;;;;;;;2.30;99.90;;;;;;5066061;28;19912;-86
2021/12/17 06:47:33;;;;;;;;;;;2.30;99.90;;;;;;5080222;28;20264;-83
2021/12/17 06:54:35;;;;;;;;;;;2.30;99.90;;;;;;5089646;28;19908;-82
2021/12/17 06:58:42;;;;;;;;;;;2.30;99.90;;;;;;5087479;28;19915;-80
2021/12/17 07:06:27;;;;;;;;;;;2.30;99.90;;;;;;5085008;28;19923;-82
2021/12/17 07:17:24;;;;;;;;;;;2.50;99.90;;;;;;5085033;28;20286;-82
2021/12/17 07:35:48;;;;;;;;;;;2.40;99.90;;;;;;5084349;28;20309;-80
2021/12/17 07:40:58;;;;;;;;;;;2.60;99.90;;;;;;5081326;28;20371;-80
2021/12/17 07:43:38;;;;;;;;;;;2.60;99.90;;;;;;5065358;28;19985;-82
2021/12/17 07:46:05;;;;;;;;;;;2.70;99.90;;;;;;5054699;28;20015;-80
2021/12/17 07:48:31;;;;;;;;;;;2.60;99.90;;;;;;5075490;28;19916;-81
2021/12/17 07:50:58;;;;;;;;;;;2.60;99.90;;;;;;5086382;28;19912;-82
2021/12/17 07:53:23;;;;;;;;;;;2.50;99.90;;;;;;5086063;28;19935;-79
2021/12/17 07:55:49;;;;;;;;;;;2.50;99.90;;;;;;5064188;28;20349;-81
2021/12/17 07:58:14;;;;;;;;;;;2.50;99.90;;;;;;5062852;28;20019;-81
2021/12/17 08:00:40;;;;;;;;;;;2.60;99.90;;;;;;5083817;28;20017;-80
2021/12/17 08:03:06;;;;;;;;;;;2.60;99.90;;;;;;5082470;28;20345;-79
2021/12/17 08:05:31;;;;;;;;;;;2.60;99.90;;;;;;5084955;28;19992;-82
2021/12/17 08:07:57;;;;;;;;;;;2.60;99.90;;;;;;5065781;28;19940;-80
2021/12/17 08:10:22;;;;;;;;;;;2.70;99.90;;;;;;5083669;28;19916;-80
2021/12/17 08:12:48;;;;;;;;;;;2.70;99.90;;;;;;5059113;28;19946;-82
2021/12/17 08:15:22;;;;;;;;;;;2.70;99.90;;;;;;5084377;28;19920;-80
2021/12/17 08:18:11;;;;;;;;;;;2.50;99.90;;;;;;5083380;28;20183;-79
2021/12/17 08:28:39;;;;;;;;;;;2.80;99.90;;;;;;5068500;28;19912;-80
2021/12/17 08:31:04;;;;;;;;;;;2.80;99.90;;;;;;5084945;28;19926;-81
2021/12/17 08:33:30;;;;;;;;;;;2.80;99.90;;;;;;5086693;28;20011;-82
2021/12/17 08:35:57;;;;;;;;;;;2.90;99.90;;;;;;5068888;28;19951;-83
2021/12/17 08:38:23;;;;;;;;;;;2.90;99.90;;;;;;5084186;28;19967;-82
2021/12/17 08:40:50;;;;;;;;;;;2.80;99.90;;;;;;5070005;28;20322;-80
2021/12/17 08:43:15;;;;;;;;;;;2.70;99.90;;;;;;5083061;28;19912;-83
2021/12/17 08:45:41;;;;;;;;;;;2.80;99.90;;;;;;5087419;28;19912;-79
2021/12/17 08:48:06;;;;;;;;;;;2.90;99.90;;;;;;5085717;28;19908;-83
2021/12/17 08:50:32;;;;;;;;;;;2.90;99.90;;;;;;5084588;28;19913;-83
2021/12/17 08:52:57;;;;;;;;;;;2.90;99.90;;;;;;5067992;28;20387;-82
2021/12/17 08:55:23;;;;;;;;;;;3.00;99.90;;;;;;5087908;28;19916;-82
2021/12/17 08:57:48;;;;;;;;;;;3.00;99.90;;;;;;5083747;28;19908;-81
2021/12/17 09:00:14;;;;;;;;;;;3.00;99.90;;;;;;5085801;28;19919;-80
2021/12/17 09:02:41;;;;;;;;;;;3.00;99.90;;;;;;5066591;28;19993;-81
2021/12/17 09:05:07;;;;;;;;;;;3.00;99.90;;;;;;5083654;28;19960;-81
2021/12/17 09:07:33;;;;;;;;;;;3.00;99.90;;;;;;5086526;28;20464;-81
2021/12/17 09:09:59;;;;;;;;;;;3.10;99.90;;;;;;5086829;28;19955;-78
2021/12/17 09:12:25;;;;;;;;;;;3.10;99.90;;;;;;5086947;28;19961;-81
2021/12/17 09:14:50;;;;;;;;;;;3.20;99.90;;;;;;5049381;28;19919;-79
2021/12/17 09:17:16;;;;;;;;;;;3.20;99.90;;;;;;5084179;28;19950;-80
2021/12/17 09:19:42;;;;;;;;;;;3.10;99.90;;;;;;5085653;28;19920;-80
2021/12/17 09:22:07;;;;;;;;;;;3.20;99.90;;;;;;5085271;28;19907;-79
2021/12/17 09:24:33;;;;;;;;;;;3.10;99.90;;;;;;5088345;28;20428;-79
2021/12/17 09:26:59;;;;;;;;;;;3.10;99.90;;;;;;5084561;28;20374;-80
2021/12/17 09:29:24;;;;;;;;;;;3.10;99.90;;;;;;5070420;28;19995;-79
2021/12/17 09:31:50;;;;;;;;;;;3.20;99.90;;;;;;5094238;28;19992;-78
2021/12/17 09:34:15;;;;;;;;;;;3.30;99.90;;;;;;5084815;28;19940;-80
2021/12/17 09:36:41;;;;;;;;;;;3.40;99.90;;;;;;5050091;28;19912;-80
2021/12/17 09:39:06;;;;;;;;;;;3.30;99.90;;;;;;5084750;28;19959;-79
2021/12/17 09:41:32;;;;;;;;;;;3.50;99.90;;;;;;5083017;28;19912;-79
2021/12/17 09:43:57;;;;;;;;;;;3.50;99.90;;;;;;5082924;28;19908;-80
2021/12/17 09:46:23;;;;;;;;;;;3.60;99.90;;;;;;5064155;28;19912;-78
2021/12/17 09:48:49;;;;;;;;;;;3.60;99.90;;;;;;5064849;28;19933;-80
2021/12/17 09:51:16;;;;;;;;;;;3.50;99.90;;;;;;5083858;28;19935;-78
2021/12/17 09:53:42;;;;;;;;;;;3.40;99.90;;;;;;5067460;28;19927;-82
2021/12/17 09:56:07;;;;;;;;;;;3.50;99.90;;;;;;5088613;28;19908;-79
2021/12/17 09:58:33;;;;;;;;;;;3.60;99.90;;;;;;5083529;28;19913;-80
2021/12/17 10:00:59;;;;;;;;;;;3.70;99.90;;;;;;5065780;28;19912;-80
2021/12/17 10:03:25;;;;;;;;;;;3.70;99.90;;;;;;5082472;28;19955;-80
2021/12/17 10:05:50;;;;;;;;;;;3.60;99.90;;;;;;5086287;28;20363;-80
2021/12/17 10:08:17;;;;;;;;;;;3.60;99.90;;;;;;5083780;28;19998;-81
2021/12/17 10:10:45;;;;;;;;;;;3.70;99.90;;;;;;5091265;28;19908;-78
2021/12/17 10:13:13;;;;;;;;;;;3.70;99.90;;;;;;5082307;28;19920;-82
2021/12/17 10:15:40;;;;;;;;;;;3.80;99.90;;;;;;5084511;28;20525;-80
2021/12/17 10:18:06;;;;;;;;;;;3.90;99.90;;;;;;5088611;28;19999;-78
2021/12/17 10:20:33;;;;;;;;;;;3.90;99.90;;;;;;5081513;28;19989;-79
2021/12/17 10:22:58;;;;;;;;;;;4.20;99.90;;;;;;5085343;28;20007;-79
2021/12/17 10:25:24;;;;;;;;;;;4.20;99.90;;;;;;5084245;28;20002;-81
2021/12/17 10:27:54;;;;;;;;;;;4.10;99.90;;;;;;5078191;28;19919;-80
2021/12/17 10:30:21;;;;;;;;;;;4.10;99.90;;;;;;5062896;28;20287;-80
2021/12/17 10:32:54;;;;;;;;;;;4.20;99.90;;;;;;5084109;28;20007;-80
2021/12/17 10:35:21;;;;;;;;;;;4.20;99.90;;;;;;5064501;28;19912;-80
2021/12/17 10:37:55;;;;;;;;;;;3.80;99.90;;;;;;5069602;28;19962;-80
2021/12/17 10:40:32;;;;;;;;;;;3.80;99.90;;;;;;5066789;28;20371;-80
2021/12/17 10:43:07;;;;;;;;;;;3.90;99.90;;;;;;5063107;28;20007;-80
2021/12/17 10:45:35;;;;;;;;;;;4.10;99.90;;;;;;5074237;28;20325;-82
2021/12/17 10:50:52;;;;;;;;;;;4.10;99.90;;;;;;5081856;28;19913;-78
2021/12/17 10:53:22;;;;;;;;;;;4.40;99.90;;;;;;5083476;28;19920;-79
2021/12/17 10:55:47;;;;;;;;;;;4.60;99.90;;;;;;5088206;28;20324;-80
2021/12/17 10:58:13;;;;;;;;;;;4.70;99.90;;;;;;5060817;28;19962;-80
2021/12/17 11:00:46;;;;;;;;;;;4.60;99.90;;;;;;5081302;28;19912;-78
2021/12/17 11:03:12;;;;;;;;;;;4.60;99.90;;;;;;5083149;28;20376;-79
2021/12/17 11:05:38;;;;;;;;;;;4.50;99.90;;;;;;5084153;28;19999;-78
2021/12/17 11:08:17;;;;;;;;;;;4.30;99.90;;;;;;5082811;28;19912;-81
2021/12/17 11:10:47;;;;;;;;;;;4.20;99.90;;;;;;5083124;28;19908;-80
2021/12/17 11:13:16;;;;;;;;;;;4.10;99.90;;;;;;5087609;28;20401;-80
2021/12/17 11:15:42;;;;;;;;;;;4.10;99.90;;;;;;5087170;28;19915;-80
2021/12/17 11:18:07;;;;;;;;;;;4.40;99.90;;;;;;5081905;28;19912;-80
2021/12/17 11:20:35;;;;;;;;;;;4.70;99.90;;;;;;5068981;28;19955;-79
2021/12/17 11:23:05;;;;;;;;;;;4.60;99.90;;;;;;5080149;28;20022;-82
2021/12/17 11:25:31;;;;;;;;;;;4.60;99.90;;;;;;5087234;28;19914;-81
2021/12/17 11:27:57;;;;;;;;;;;4.80;99.90;;;;;;5062718;28;20007;-79
2021/12/17 11:30:30;;;;;;;;;;;4.90;99.90;;;;;;5066325;28;19935;-80
2021/12/17 11:33:01;;;;;;;;;;;5.00;99.90;;;;;;5086549;28;19935;-80
2021/12/17 11:35:26;;;;;;;;;;;4.80;99.90;;;;;;5066483;28;19959;-79
2021/12/17 11:37:54;;;;;;;;;;;4.80;99.90;;;;;;5083823;28;19911;-81
2021/12/17 11:40:26;;;;;;;;;;;4.90;99.90;;;;;;5065726;28;20378;-80
2021/12/17 11:42:54;;;;;;;;;;;5.10;99.90;;;;;;5081241;28;19915;-80
2021/12/17 11:45:24;;;;;;;;;;;5.20;99.90;;;;;;5089067;28;19962;-81
2021/12/17 11:47:50;;;;;;;;;;;5.10;99.90;;;;;;5080575;28;19978;-80
2021/12/17 11:50:17;;;;;;;;;;;5.10;99.90;;;;;;5082443;28;19908;-80
2021/12/17 11:52:47;;;;;;;;;;;5.20;99.90;;;;;;5065844;28;20403;-81
2021/12/17 11:55:41;;;;;;;;;;;5.20;99.90;;;;;;5086635;28;19912;-80
2021/12/17 11:58:12;;;;;;;;;;;4.90;99.90;;;;;;5062620;28;19957;-81
2021/12/17 12:00:41;;;;;;;;;;;4.80;99.90;;;;;;5086353;28;19912;-80
2021/12/17 12:03:15;;;;;;;;;;;4.80;99.90;;;;;;5068998;28;20307;-79
2021/12/17 12:05:42;;;;;;;;;;;4.80;99.90;;;;;;5087300;28;19915;-78
2021/12/17 12:08:26;;;;;;;;;;;4.90;99.90;;;;;;5088979;28;19908;-80
2021/12/17 12:11:07;;;;;;;;;;;4.80;99.90;;;;;;5065561;28;20294;-80
2021/12/17 12:13:43;;;;;;;;;;;4.60;99.90;;;;;;5080477;28;20357;-79
2021/12/17 12:16:10;;;;;;;;;;;4.50;99.90;;;;;;5086487;28;19969;-80
2021/12/17 12:18:41;;;;;;;;;;;4.40;99.90;;;;;;5083125;28;19957;-80
2021/12/17 12:21:06;;;;;;;;;;;4.40;99.90;;;;;;5085269;28;20271;-81
2021/12/17 12:23:32;;;;;;;;;;;4.50;99.90;;;;;;5087332;28;19919;-81
2021/12/17 12:26:01;;;;;;;;;;;4.70;99.90;;;;;;5090372;28;19915;-82
2021/12/17 12:28:44;;;;;;;;;;;4.60;99.90;;;;;;5081730;28;19924;-83
2021/12/17 12:31:16;;;;;;;;;;;4.70;99.90;;;;;;5078931;28;19980;-78
2021/12/17 12:34:00;;;;;;;;;;;4.70;99.90;;;;;;5082637;28;19948;-80
2021/12/17 12:36:44;;;;;;;;;;;4.60;99.90;;;;;;5077617;28;20022;-82
2021/12/17 12:39:12;;;;;;;;;;;4.60;99.90;;;;;;5069109;28;20386;-82
2021/12/17 12:41:45;;;;;;;;;;;4.70;99.90;;;;;;5083808;28;19908;-80
2021/12/17 12:44:10;;;;;;;;;;;4.70;99.90;;;;;;5068142;28;19911;-80
2021/12/17 12:46:53;;;;;;;;;;;4.50;99.90;;;;;;5084883;28;20336;-80
2021/12/17 12:49:37;;;;;;;;;;;4.80;99.90;;;;;;5083509;28;19908;-81
2021/12/17 12:52:21;;;;;;;;;;;4.90;99.90;;;;;;5083817;28;20374;-81
2021/12/17 12:54:53;;;;;;;;;;;4.60;99.90;;;;;;5085926;28;19916;-81
2021/12/17 12:57:39;;;;;;;;;;;4.60;99.90;;;;;;5084752;28;19916;-80
2021/12/17 13:00:06;;;;;;;;;;;4.50;99.90;;;;;;5097594;28;19908;-78
2021/12/17 13:02:32;;;;;;;;;;;4.60;99.90;;;;;;5097502;28;19912;-80
2021/12/17 13:04:59;;;;;;;;;;;4.60;99.90;;;;;;5090596;28;20446;-79
2021/12/17 13:07:50;;;;;;;;;;;4.60;99.90;;;;;;5083836;28;19954;-80
2021/12/17 13:10:26;;;;;;;;;;;4.60;99.90;;;;;;5077489;28;19912;-81
2021/12/17 13:13:03;;;;;;;;;;;4.80;99.90;;;;;;5085491;28;20443;-79
2021/12/17 13:16:03;;;;;;;;;;;4.60;99.90;;;;;;5086615;28;20367;-79
2021/12/17 13:23:22;;;;;;;;;;;4.20;99.90;;;;;;5080534;28;19922;-80
2021/12/17 13:26:01;;;;;;;;;;;4.30;99.90;;;;;;5071931;28;19908;-79
2021/12/17 13:28:26;;;;;;;;;;;4.10;99.90;;;;;;5068062;28;19951;-80
2021/12/17 13:30:55;;;;;;;;;;;4.10;99.90;;;;;;5087816;28;20338;-80
2021/12/17 13:33:21;;;;;;;;;;;4.10;99.90;;;;;;5066340;28;20640;-81
2021/12/17 13:35:47;;;;;;;;;;;3.90;99.90;;;;;;5093728;28;19916;-81
2021/12/17 13:38:12;;;;;;;;;;;3.90;99.90;;;;;;5082723;28;19912;-88
2021/12/17 13:40:38;;;;;;;;;;;3.90;99.90;;;;;;5086483;28;19975;-85
2021/12/17 13:43:03;;;;;;;;;;;4.00;99.90;;;;;;5068548;28;20022;-79
2021/12/17 13:45:30;;;;;;;;;;;3.90;99.90;;;;;;5071411;28;19919;-88
2021/12/17 13:47:57;;;;;;;;;;;3.80;99.90;;;;;;5077686;28;19915;-88
2021/12/17 13:50:28;;;;;;;;;;;3.70;99.90;;;;;;5048144;28;19919;-81
2021/12/17 13:52:58;;;;;;;;;;;3.70;99.90;;;;;;5086020;28;19920;-86
2021/12/17 13:55:29;;;;;;;;;;;3.70;99.90;;;;;;5085163;28;19912;-89
2021/12/17 13:57:55;;;;;;;;;;;3.70;99.90;;;;;;5088341;28;19919;-86
2021/12/17 14:00:25;;;;;;;;;;;3.60;99.90;;;;;;5064871;28;19915;-86
2021/12/17 14:02:53;;;;;;;;;;;3.60;99.90;;;;;;5086849;28;20179;-88
2021/12/17 14:05:28;;;;;;;;;;;3.60;99.90;;;;;;5065422;28;19912;-88
2021/12/17 14:07:55;;;;;;;;;;;3.60;99.90;;;;;;5072119;28;19916;-86
2021/12/17 14:10:22;;;;;;;;;;;3.60;99.90;;;;;;5083256;28;19919;-86
2021/12/17 14:12:48;;;;;;;;;;;3.60;99.90;;;;;;5065241;28;20374;-87
2021/12/17 14:15:19;;;;;;;;;;;3.70;99.90;;;;;;5083208;28;19939;-87
2021/12/17 14:17:46;;;;;;;;;;;3.60;99.90;;;;;;5083287;28;19916;-86
2021/12/17 14:20:13;;;;;;;;;;;3.40;99.90;;;;;;5065552;28;19908;-87
2021/12/17 14:22:42;;;;;;;;;;;3.40;99.90;;;;;;5065547;28;19912;-85
2021/12/17 14:25:22;;;;;;;;;;;3.40;99.90;;;;;;5085919;28;19978;-81
2021/12/17 14:27:48;;;;;;;;;;;3.40;99.90;;;;;;5081689;28;20332;-85
2021/12/17 14:30:14;;;;;;;;;;;3.40;99.90;;;;;;5083627;28;19916;-84
2021/12/17 14:32:41;;;;;;;;;;;3.30;99.90;;;;;;5084187;28;19916;-86
2021/12/17 14:35:07;;;;;;;;;;;3.30;99.90;;;;;;5085331;28;19908;-88
2021/12/17 14:37:54;;;;;;;;;;;3.20;99.90;;;;;;5085058;28;19908;-84
2021/12/17 14:40:24;;;;;;;;;;;3.20;99.90;;;;;;5083068;28;19935;-84
2021/12/17 14:42:51;;;;;;;;;;;3.10;99.90;;;;;;5086851;28;19908;-89
2021/12/17 14:45:21;;;;;;;;;;;3.00;99.90;;;;;;5089131;28;19912;-83
2021/12/17 14:47:54;;;;;;;;;;;3.00;99.90;;;;;;5083944;28;20432;-83
2021/12/17 15:04:14;;;;;;;;;;;3.10;99.90;;;;;;5011095;28;19918;-84
2021/12/17 15:06:40;;;;;;;;;;;3.00;99.90;;;;;;5083833;28;19916;-86
2021/12/17 15:09:05;;;;;;;;;;;3.00;99.90;;;;;;5066821;28;20287;-84
2021/12/17 15:11:37;;;;;;;;;;;3.10;99.90;;;;;;5087085;28;20367;-84
2021/12/17 15:14:02;;;;;;;;;;;3.10;99.90;;;;;;5084930;28;19937;-82
2021/12/17 15:16:28;;;;;;;;;;;3.20;99.90;;;;;;5090253;28;19913;-84
2021/12/17 15:18:54;;;;;;;;;;;3.20;99.90;;;;;;5084303;28;19916;-83
2021/12/17 15:21:19;;;;;;;;;;;3.20;99.90;;;;;;5087466;28;19912;-85
2021/12/17 15:23:45;;;;;;;;;;;3.10;99.90;;;;;;5085893;28;20387;-83
2021/12/17 15:26:10;;;;;;;;;;;3.10;99.90;;;;;;5069021;28;20426;-79
2021/12/17 15:28:39;;;;;;;;;;;3.00;99.90;;;;;;5086705;28;20267;-89
2021/12/17 15:31:06;;;;;;;;;;;3.00;99.90;;;;;;5073723;28;19990;-79
2021/12/17 15:33:33;;;;;;;;;;;3.10;99.90;;;;;;5069681;28;19912;-80
2021/12/17 15:35:59;;;;;;;;;;;3.20;99.90;;;;;;5086990;28;20430;-80
2021/12/17 15:38:24;;;;;;;;;;;3.20;99.90;;;;;;5083771;28;19998;-81
2021/12/17 15:40:50;;;;;;;;;;;3.10;99.90;;;;;;5065395;28;20359;-84
2021/12/17 15:43:17;;;;;;;;;;;3.20;99.90;;;;;;5073760;28;19912;-86
2021/12/17 15:45:43;;;;;;;;;;;3.20;99.90;;;;;;5085195;28;20387;-83
2021/12/17 15:48:10;;;;;;;;;;;3.10;99.90;;;;;;5080456;28;19908;-83
2021/12/17 15:50:37;;;;;;;;;;;3.00;99.90;;;;;;5086754;28;19912;-87
2021/12/17 15:53:02;;;;;;;;;;;3.00;99.90;;;;;;5093359;28;20066;-87
2021/12/17 15:55:28;;;;;;;;;;;3.00;99.90;;;;;;5050819;28;20015;-84
2021/12/17 15:57:54;;;;;;;;;;;3.20;99.90;;;;;;5087809;28;20383;-81
2021/12/17 16:00:21;;;;;;;;;;;3.30;99.90;;;;;;5084136;28;19934;-82
2021/12/17 16:02:47;;;;;;;;;;;3.30;99.90;;;;;;5063016;28;20703;-83
2021/12/17 16:05:14;;;;;;;;;;;3.30;99.90;;;;;;5082673;28;19916;-84
2021/12/17 16:07:40;;;;;;;;;;;3.30;99.90;;;;;;5084828;28;19990;-82
2021/12/17 16:23:24;;;;;;;;;;;3.40;99.90;;;;;;5084188;28;19923;-80
2021/12/17 16:25:49;;;;;;;;;;;3.40;99.90;;;;;;5083284;28;19908;-79
2021/12/17 16:28:15;;;;;;;;;;;3.30;99.90;;;;;;5067200;28;19979;-82
2021/12/17 16:30:40;;;;;;;;;;;3.30;99.90;;;;;;5086612;28;19943;-81
2021/12/17 16:33:06;;;;;;;;;;;3.20;99.90;;;;;;5085156;28;19916;-87
2021/12/17 16:35:31;;;;;;;;;;;3.20;99.90;;;;;;5086279;28;19912;-87
2021/12/17 16:37:57;;;;;;;;;;;3.10;99.90;;;;;;5065565;28;19921;-89
2021/12/17 16:40:23;;;;;;;;;;;3.20;99.90;;;;;;5083709;28;20379;-87
2021/12/17 16:42:51;;;;;;;;;;;3.30;99.90;;;;;;5085086;28;20409;-86
2021/12/17 16:45:23;;;;;;;;;;;3.30;99.90;;;;;;5085075;28;20100;-87
2021/12/17 16:47:49;;;;;;;;;;;3.30;99.90;;;;;;5081538;28;20010;-85
2021/12/17 16:50:15;;;;;;;;;;;3.30;99.90;;;;;;5090409;28;19912;-85
2021/12/17 16:52:40;;;;;;;;;;;3.30;99.90;;;;;;5089275;28;19923;-85
2021/12/17 16:55:06;;;;;;;;;;;3.20;99.90;;;;;;5078393;28;20287;-82
2021/12/17 16:57:32;;;;;;;;;;;3.10;99.90;;;;;;5085098;28;19926;-84
2021/12/17 16:59:59;;;;;;;;;;;3.10;99.90;;;;;;5077356;28;19908;-88
2021/12/17 17:02:25;;;;;;;;;;;3.10;99.90;;;;;;5094013;28;19923;-81
2021/12/17 17:04:54;;;;;;;;;;;3.20;99.90;;;;;;5093536;28;20330;-88
2021/12/17 17:07:19;;;;;;;;;;;3.30;99.90;;;;;;5081684;28;19912;-82
2021/12/17 17:09:45;;;;;;;;;;;3.40;99.90;;;;;;5091903;28;19913;-82
2021/12/17 17:12:12;;;;;;;;;;;3.40;99.90;;;;;;5085391;28;19923;-78
2021/12/17 17:14:38;;;;;;;;;;;3.50;99.90;;;;;;5075524;28;20317;-77
2021/12/17 17:17:07;;;;;;;;;;;3.30;99.90;;;;;;5054927;28;19973;-77
2021/12/17 17:19:35;;;;;;;;;;;3.10;99.90;;;;;;5087119;28;19912;-79
2021/12/17 17:22:01;;;;;;;;;;;3.10;99.90;;;;;;5089350;28;19915;-76
2021/12/17 17:24:27;;;;;;;;;;;3.20;99.90;;;;;;5074497;28;19912;-80
2021/12/17 17:26:52;;;;;;;;;;;3.30;99.90;;;;;;5077270;28;19928;-75
2021/12/17 17:29:18;;;;;;;;;;;3.30;99.90;;;;;;5072988;28;19938;-76
2021/12/17 17:31:44;;;;;;;;;;;3.30;99.90;;;;;;5084362;28;20442;-78
2021/12/17 17:34:10;;;;;;;;;;;3.30;99.90;;;;;;5089165;28;19912;-77
2021/12/17 17:36:37;;;;;;;;;;;3.20;99.90;;;;;;5089206;28;19920;-80
2021/12/17 17:39:03;;;;;;;;;;;3.10;99.90;;;;;;5089278;28;19912;-80
2021/12/17 17:41:29;;;;;;;;;;;3.00;99.90;;;;;;5089188;28;20379;-79
2021/12/17 17:43:57;;;;;;;;;;;3.00;99.90;;;;;;5072489;28;19924;-77
2021/12/17 17:46:23;;;;;;;;;;;2.90;99.90;;;;;;5092079;28;19919;-77
2021/12/17 17:48:48;;;;;;;;;;;2.90;99.90;;;;;;5086742;28;19916;-79